Aeroporto :
LOGIN :

Iscrizione | Disclaimer

   EN    FR    IT 

 










Sommario :    VFR   VFR Marginale   IFR   IFR Intensivo   IFR Molto Intensivo
Visibilità : 
Base nubi : 
>= 8 km
>= 3000ft
5 / 8 km
1000 / 3000 ft
1500m / 5 km
500 / 1000 ft
800 / 1500m
200 / 500 ft
< 800m
< 200 ft
Simboli :   Temporali  Nebbia  Neve Forte  Precipitazioni Forti  Vento > 20 kt
SIGMETs :   Varie  Temporali  Ghiacco  Turbolenza  Onda orograficha  Ceneri Vulcaniche






- Altitudine del aeroporto : 489 ft
- Codice IATA : GDN


EPGD - Gdansk

ULTIMO METAR :
  • 271400Z 05007KT 9999 FEW013 BKN033 17/14 Q1002

METARs OBSOLETI :
  • 271330Z 06007KT 9999 OVC036 17/14 Q1002
  • 271300Z 07007KT 9999 FEW030 OVC036 17/14 Q1002
  • 271230Z 04007KT 360V060 9999 OVC028 17/14 Q1001
  • 271200Z 06007KT 9999 OVC027 17/14 Q1001
  • 271130Z 06008KT 9999 BKN029 OVC039 16/13 Q1001
  • 271100Z 06009KT 9999 SCT026 BKN043 16/13 Q1001

TAF TAF EPGD
Valido dal 27 a 12 ore il 28 a 12 ore UTC


271130Z 2712/2812 09010KT 9999 BKN027
PROB40
TEMPO 2713/2717 09015G26KT
BECMG 2715/2718 18010KT BKN007 OVC012
TEMPO 2717/2723 BKN003
BECMG 2802/2805 SCT020



MetMap, La meteo Aeronautica in un colpo d'occhio ! - Copyright ORBIFLY Dicembre 2007 - Disclaimer

ORBIFLY MET'MAP TEAM :

Programmazione e sviluppo : Alexandra Zaïnal
Concezione : Baudouin d'Aumeries
Aiuto per la programmazione : Marc-Olivier Méhu
Supporto tecnico e logistico : Manuel Goepfert
Aiuto per la traduzione : Arnaldo La Scala

Contatto : metmap@orbifly.com




FONTI E CREDITI :

   NOAA